Arletta, Washington
Current Conditions -  °F | °C
As of 10:53 PM on Saturday 25 Oct 2014 (Local Time) from KTIW Reporting Station
Scattered Clouds Scattered Clouds  
Wind Chill: 52°   Ceiling: Unl
Heat Index: 52°   Visibility: 10mi
Dew Point: 44°   Wind: 18mph
Humidity: 74%   Direction: 210°SSW
Pressure: 29.71"   Gusts: 31mph
Location:  47.2986°N, 122.616°W
Report Text: KTIW 260553Z AUTO 21016G27KT 10SM SCT100 11/07 A2971 RMK AO2 PK WND 19033/0455 PRESRR SLP061 60018 T01110067 10167 20111 51082
Loading
Personal Weather Stations






























Interactive Weather Map
Tropical Storm Tracking
New forecast layout! Learn more

10-Day Weather Forecast

Advertisements
Track Severe Weather on mobile